PWSweather.com
Personal Weather Stations
Station Observations
CHKWX
Mesa Panagitsa, ChalkisGR 34100

Mesa PanagitsaChalkisGR 34100

Lat: 38.470143, Lon: 23.598348

Elevation: 30

Station Type: Ambient Weather WS-1400-IP

Latest ConditionsUpdated 3:40:01 AM GMT+02:02 Thursday, Sep 20, 2018
Currently Today's Max Today's Min Today's Average
Temperature 74.1°F23.4°C 74.1°F23.4°C 73.4°F23.0°C 73.8°F23.2°C
Dew Point 62.9°F17.2°C 63.1°F17.3°C 60.2°F15.7°C 61.8°F16.6°C
Winds 8.1 mph NE13.0 kmh NE 19.6 mph -31.5 kmh - - 12.5 mph 20.1 kmh
Wind Gusts 20.7 mph33.3 kmh 27.6 mph44.4 kmh - -
Humidity 68% 69% 63% 66%
Pressure 30.06 in1017.9 mb 30.10 in1019.3 mb 30.06 in1017.9 mb -
Hour Temp Dew Point Humidity Winds Wind Gusts Pressure Precip Precip Rate Daily Precip Total
03:40 AM 74.1°F23.4°C 62.9°F17.2°C 68% 8.1 mph NE13.0 kmh NE 20.7 mph33.3 kmh 30.06 in1017.9 mb - 0.00 in0.0 mm 0.00 in0.0 mm
03:30 AM 73.9°F23.3°C 62.2°F16.8°C 67% 12.7 mph NE20.4 kmh NE 25.3 mph40.7 kmh 30.06 in1017.9 mb - 0.00 in0.0 mm 0.00 in0.0 mm
03:20 AM 73.8°F23.2°C 62.2°F16.8°C 67% 12.7 mph NW20.4 kmh NW 25.3 mph40.7 kmh 30.07 in1018.3 mb - 0.00 in0.0 mm 0.00 in0.0 mm
03:10 AM 73.8°F23.2°C 62.6°F17.0°C 68% 10.4 mph NW16.7 kmh NW 15.0 mph24.1 kmh 30.07 in1018.3 mb - 0.00 in0.0 mm 0.00 in0.0 mm
03:00 AM 73.9°F23.3°C 62.2°F16.8°C 67% 12.7 mph WNW20.4 kmh WNW 17.3 mph27.8 kmh 30.07 in1018.3 mb - 0.00 in0.0 mm 0.00 in0.0 mm
02:50 AM 73.8°F23.2°C 61.3°F16.3°C 65% 17.3 mph NNW27.8 kmh NNW 25.3 mph40.7 kmh 30.07 in1018.3 mb - 0.00 in0.0 mm 0.00 in0.0 mm
02:40 AM 73.6°F23.1°C 60.2°F15.7°C 63% 15.0 mph NW24.1 kmh NW 20.7 mph33.3 kmh 30.08 in1018.6 mb - 0.00 in0.0 mm 0.00 in0.0 mm
02:30 AM 73.8°F23.2°C 62.2°F16.8°C 67% 10.4 mph NW16.7 kmh NW 15.0 mph24.1 kmh 30.08 in1018.6 mb - 0.00 in0.0 mm 0.00 in0.0 mm
02:20 AM 73.9°F23.3°C 63.1°F17.3°C 69% 11.5 mph N18.5 kmh N 17.3 mph27.8 kmh 30.08 in1018.6 mb - 0.00 in0.0 mm 0.00 in0.0 mm
02:10 AM 74.1°F23.4°C 60.7°F15.9°C 63% 16.1 mph NW25.9 kmh NW 23.0 mph37.0 kmh 30.08 in1018.6 mb - 0.00 in0.0 mm 0.00 in0.0 mm
02:00 AM 74.1°F23.4°C 62.0°F16.7°C 66% 12.7 mph NE20.4 kmh NE 23.0 mph37.0 kmh 30.08 in1018.6 mb - 0.00 in0.0 mm 0.00 in0.0 mm
01:50 AM 73.9°F23.3°C 61.0°F16.1°C 64% 16.1 mph NW25.9 kmh NW 25.3 mph40.7 kmh 30.08 in1018.6 mb - 0.00 in0.0 mm 0.00 in0.0 mm
01:40 AM 73.8°F23.2°C 61.7°F16.5°C 66% 10.4 mph N16.7 kmh N 20.7 mph33.3 kmh 30.08 in1018.6 mb - 0.00 in0.0 mm 0.00 in0.0 mm
01:30 AM 73.8°F23.2°C 60.9°F16.1°C 64% 8.1 mph W13.0 kmh W 12.7 mph20.4 kmh 30.08 in1018.6 mb - 0.00 in0.0 mm 0.00 in0.0 mm
01:20 AM 73.8°F23.2°C 61.7°F16.5°C 66% 12.7 mph NW20.4 kmh NW 20.7 mph33.3 kmh 30.08 in1018.6 mb - 0.00 in0.0 mm 0.00 in0.0 mm
01:10 AM 73.6°F23.1°C 61.5°F16.4°C 66% 17.3 mph NNW27.8 kmh NNW 20.7 mph33.3 kmh 30.09 in1019.0 mb - 0.00 in0.0 mm 0.00 in0.0 mm
01:00 AM 73.6°F23.1°C 62.0°F16.7°C 67% 11.5 mph NNW18.5 kmh NNW 17.3 mph27.8 kmh 30.09 in1019.0 mb - 0.00 in0.0 mm 0.00 in0.0 mm
12:50 AM 73.6°F23.1°C 62.0°F16.7°C 67% 19.6 mph NNW31.5 kmh NNW 27.6 mph44.4 kmh 30.09 in1019.0 mb - 0.00 in0.0 mm 0.00 in0.0 mm
12:40 AM 73.6°F23.1°C 61.5°F16.4°C 66% 10.4 mph N16.7 kmh N 17.3 mph27.8 kmh 30.09 in1019.0 mb - 0.00 in0.0 mm 0.00 in0.0 mm
12:30 AM 73.6°F23.1°C 61.5°F16.4°C 66% 11.5 mph N18.5 kmh N 20.7 mph33.3 kmh 30.09 in1019.0 mb - 0.00 in0.0 mm 0.00 in0.0 mm
12:20 AM 73.6°F23.1°C 62.0°F16.7°C 67% 9.2 mph NE14.8 kmh NE 15.0 mph24.1 kmh 30.10 in1019.3 mb - 0.00 in0.0 mm 0.00 in0.0 mm
12:10 AM 73.4°F23.0°C 61.8°F16.6°C 67% 11.5 mph 18.5 kmh 25.3 mph40.7 kmh 30.09 in1019.0 mb - 0.00 in0.0 mm 0.00 in0.0 mm
12:00 AM 73.6°F23.1°C 62.0°F16.7°C 67% 9.2 mph NE14.8 kmh NE 23.0 mph37.0 kmh 30.10 in1019.3 mb - 0.00 in0.0 mm 0.00 in0.0 mm